sensor_id;sensor_type;location;lat;lon;timestamp;P1;durP1;ratioP1;P2;durP2;ratioP2
68523;SDS011;55524;51.380;13.372;2023-05-16T00:01:03;15.38;;;9.95;;
68523;SDS011;55524;51.380;13.372;2023-05-16T00:03:29;12.07;;;10.23;;
68523;SDS011;55524;51.380;13.372;2023-05-16T00:05:56;14.98;;;9.20;;
68523;SDS011;55524;51.380;13.372;2023-05-16T00:08:23;13.90;;;10.30;;
68523;SDS011;55524;51.380;13.372;2023-05-16T00:10:50;11.38;;;9.65;;
68523;SDS011;55524;51.380;13.372;2023-05-16T00:13:16;12.55;;;10.00;;
68523;SDS011;55524;51.380;13.372;2023-05-16T00:15:52;14.43;;;9.75;;
68523;SDS011;55524;51.380;13.372;2023-05-16T00:18:23;12.18;;;9.88;;
68523;SDS011;55524;51.380;13.372;2023-05-16T00:20:50;16.67;;;10.60;;
68523;SDS011;55524;51.380;13.372;2023-05-16T00:23:18;13.70;;;10.85;;
68523;SDS011;55524;51.380;13.372;2023-05-16T00:25:45;12.20;;;10.10;;
68523;SDS011;55524;51.380;13.372;2023-05-16T00:28:12;16.65;;;10.73;;
68523;SDS011;55524;51.380;13.372;2023-05-16T00:30:39;14.13;;;11.23;;
68523;SDS011;55524;51.380;13.372;2023-05-16T00:33:05;14.50;;;10.98;;
68523;SDS011;55524;51.380;13.372;2023-05-16T00:35:32;14.60;;;10.85;;
68523;SDS011;55524;51.380;13.372;2023-05-16T00:37:58;13.85;;;10.73;;
68523;SDS011;55524;51.380;13.372;2023-05-16T00:40:25;14.98;;;11.35;;
68523;SDS011;55524;51.380;13.372;2023-05-16T00:42:51;14.95;;;11.98;;
68523;SDS011;55524;51.380;13.372;2023-05-16T00:45:17;16.75;;;11.68;;
68523;SDS011;55524;51.380;13.372;2023-05-16T00:47:44;16.42;;;12.40;;
68523;SDS011;55524;51.380;13.372;2023-05-16T00:50:10;15.30;;;12.55;;
68523;SDS011;55524;51.380;13.372;2023-05-16T00:52:36;15.10;;;12.02;;
68523;SDS011;55524;51.380;13.372;2023-05-16T00:55:03;16.33;;;12.52;;
68523;SDS011;55524;51.380;13.372;2023-05-16T00:57:31;15.43;;;12.52;;
68523;SDS011;55524;51.380;13.372;2023-05-16T00:59:58;16.80;;;12.27;;
68523;SDS011;55524;51.380;13.372;2023-05-16T01:02:24;19.58;;;13.32;;
68523;SDS011;55524;51.380;13.372;2023-05-16T01:04:53;18.67;;;12.98;;
68523;SDS011;55524;51.380;13.372;2023-05-16T01:07:20;15.52;;;12.18;;
68523;SDS011;55524;51.380;13.372;2023-05-16T01:09:47;16.42;;;12.93;;
68523;SDS011;55524;51.380;13.372;2023-05-16T01:15:06;16.30;;;12.70;;
68523;SDS011;55524;51.380;13.372;2023-05-16T01:18:02;15.93;;;12.13;;
68523;SDS011;55524;51.380;13.372;2023-05-16T01:23:55;15.65;;;12.40;;
68523;SDS011;55524;51.380;13.372;2023-05-16T01:26:35;15.70;;;12.23;;
68523;SDS011;55524;51.380;13.372;2023-05-16T01:29:01;15.40;;;12.40;;
68523;SDS011;55524;51.380;13.372;2023-05-16T01:31:29;19.40;;;12.45;;
68523;SDS011;55524;51.380;13.372;2023-05-16T01:33:55;15.85;;;12.20;;
68523;SDS011;55524;51.380;13.372;2023-05-16T01:36:29;16.75;;;12.23;;
68523;SDS011;55524;51.380;13.372;2023-05-16T01:39:10;16.40;;;11.63;;
68523;SDS011;55524;51.380;13.372;2023-05-16T01:47:26;15.90;;;12.73;;
68523;SDS011;55524;51.380;13.372;2023-05-16T01:50:00;17.08;;;12.68;;
68523;SDS011;55524;51.380;13.372;2023-05-16T01:52:37;16.50;;;13.15;;
68523;SDS011;55524;51.380;13.372;2023-05-16T01:55:28;15.88;;;13.23;;
68523;SDS011;55524;51.380;13.372;2023-05-16T01:58:06;18.70;;;13.73;;
68523;SDS011;55524;51.380;13.372;2023-05-16T02:00:34;21.25;;;14.10;;
68523;SDS011;55524;51.380;13.372;2023-05-16T02:03:00;21.77;;;14.80;;
68523;SDS011;55524;51.380;13.372;2023-05-16T02:05:26;21.77;;;15.80;;
68523;SDS011;55524;51.380;13.372;2023-05-16T02:07:53;20.13;;;14.32;;
68523;SDS011;55524;51.380;13.372;2023-05-16T02:10:19;19.80;;;14.70;;
68523;SDS011;55524;51.380;13.372;2023-05-16T02:12:46;21.10;;;14.93;;
68523;SDS011;55524;51.380;13.372;2023-05-16T02:15:13;20.23;;;15.23;;
68523;SDS011;55524;51.380;13.372;2023-05-16T02:17:39;21.33;;;15.23;;
68523;SDS011;55524;51.380;13.372;2023-05-16T02:20:06;19.05;;;14.68;;
68523;SDS011;55524;51.380;13.372;2023-05-16T02:22:36;18.30;;;14.57;;
68523;SDS011;55524;51.380;13.372;2023-05-16T02:25:06;19.48;;;14.35;;
68523;SDS011;55524;51.380;13.372;2023-05-16T02:27:33;27.02;;;14.75;;
68523;SDS011;55524;51.380;13.372;2023-05-16T02:30:00;20.75;;;14.15;;
68523;SDS011;55524;51.380;13.372;2023-05-16T02:32:26;26.33;;;14.52;;
68523;SDS011;55524;51.380;13.372;2023-05-16T02:34:53;19.95;;;14.50;;
68523;SDS011;55524;51.380;13.372;2023-05-16T02:37:19;23.02;;;15.52;;
68523;SDS011;55524;51.380;13.372;2023-05-16T02:39:46;22.02;;;14.55;;
68523;SDS011;55524;51.380;13.372;2023-05-16T02:42:12;17.25;;;14.27;;
68523;SDS011;55524;51.380;13.372;2023-05-16T02:44:38;18.42;;;14.75;;
68523;SDS011;55524;51.380;13.372;2023-05-16T02:47:05;19.90;;;15.15;;
68523;SDS011;55524;51.380;13.372;2023-05-16T02:49:31;21.63;;;15.40;;
68523;SDS011;55524;51.380;13.372;2023-05-16T02:51:57;23.27;;;15.52;;
68523;SDS011;55524;51.380;13.372;2023-05-16T02:54:24;20.83;;;15.43;;
68523;SDS011;55524;51.380;13.372;2023-05-16T02:56:50;23.90;;;14.85;;
68523;SDS011;55524;51.380;13.372;2023-05-16T02:59:17;20.02;;;15.13;;
68523;SDS011;55524;51.380;13.372;2023-05-16T03:01:43;25.45;;;15.77;;
68523;SDS011;55524;51.380;13.372;2023-05-16T03:04:09;19.40;;;15.52;;
68523;SDS011;55524;51.380;13.372;2023-05-16T03:06:36;24.98;;;14.77;;
68523;SDS011;55524;51.380;13.372;2023-05-16T03:09:02;19.02;;;15.23;;
68523;SDS011;55524;51.380;13.372;2023-05-16T03:11:28;21.58;;;15.35;;
68523;SDS011;55524;51.380;13.372;2023-05-16T03:13:55;25.35;;;15.73;;
68523;SDS011;55524;51.380;13.372;2023-05-16T03:16:23;20.67;;;15.38;;
68523;SDS011;55524;51.380;13.372;2023-05-16T03:18:50;22.17;;;16.08;;
68523;SDS011;55524;51.380;13.372;2023-05-16T03:21:16;24.75;;;16.13;;
68523;SDS011;55524;51.380;13.372;2023-05-16T03:23:42;20.25;;;15.45;;
68523;SDS011;55524;51.380;13.372;2023-05-16T03:26:08;23.45;;;15.60;;
68523;SDS011;55524;51.380;13.372;2023-05-16T03:28:35;19.70;;;15.43;;
68523;SDS011;55524;51.380;13.372;2023-05-16T03:31:02;23.63;;;17.00;;
68523;SDS011;55524;51.380;13.372;2023-05-16T03:33:28;23.48;;;15.50;;
68523;SDS011;55524;51.380;13.372;2023-05-16T03:35:54;23.95;;;15.70;;
68523;SDS011;55524;51.380;13.372;2023-05-16T03:38:20;22.23;;;16.35;;
68523;SDS011;55524;51.380;13.372;2023-05-16T03:40:47;23.30;;;16.65;;
68523;SDS011;55524;51.380;13.372;2023-05-16T03:43:14;22.80;;;15.45;;
68523;SDS011;55524;51.380;13.372;2023-05-16T03:45:40;22.02;;;15.68;;
68523;SDS011;55524;51.380;13.372;2023-05-16T03:48:07;22.38;;;15.85;;
68523;SDS011;55524;51.380;13.372;2023-05-16T03:50:34;22.77;;;15.90;;
68523;SDS011;55524;51.380;13.372;2023-05-16T03:53:01;21.20;;;15.55;;
68523;SDS011;55524;51.380;13.372;2023-05-16T03:55:28;25.25;;;17.13;;
68523;SDS011;55524;51.380;13.372;2023-05-16T03:57:55;23.98;;;16.13;;
68523;SDS011;55524;51.380;13.372;2023-05-16T04:00:21;22.25;;;15.05;;
68523;SDS011;55524;51.380;13.372;2023-05-16T04:02:48;20.45;;;14.98;;
68523;SDS011;55524;51.380;13.372;2023-05-16T04:05:14;23.67;;;15.23;;
68523;SDS011;55524;51.380;13.372;2023-05-16T04:07:40;20.02;;;15.05;;
68523;SDS011;55524;51.380;13.372;2023-05-16T04:10:07;22.63;;;15.27;;
68523;SDS011;55524;51.380;13.372;2023-05-16T04:12:34;28.02;;;15.88;;
68523;SDS011;55524;51.380;13.372;2023-05-16T04:15:04;23.83;;;15.90;;
68523;SDS011;55524;51.380;13.372;2023-05-16T04:17:31;21.48;;;15.45;;
68523;SDS011;55524;51.380;13.372;2023-05-16T04:20:01;24.33;;;16.00;;
68523;SDS011;55524;51.380;13.372;2023-05-16T04:22:28;25.55;;;17.35;;
68523;SDS011;55524;51.380;13.372;2023-05-16T04:24:55;31.10;;;17.30;;
68523;SDS011;55524;51.380;13.372;2023-05-16T04:27:21;28.00;;;18.27;;
68523;SDS011;55524;51.380;13.372;2023-05-16T04:29:48;29.70;;;19.75;;
68523;SDS011;55524;51.380;13.372;2023-05-16T04:32:14;27.65;;;18.65;;
68523;SDS011;55524;51.380;13.372;2023-05-16T04:34:41;30.98;;;19.42;;
68523;SDS011;55524;51.380;13.372;2023-05-16T04:37:09;30.65;;;19.90;;
68523;SDS011;55524;51.380;13.372;2023-05-16T04:39:36;29.52;;;19.35;;
68523;SDS011;55524;51.380;13.372;2023-05-16T04:42:02;32.13;;;19.15;;
68523;SDS011;55524;51.380;13.372;2023-05-16T04:44:30;31.58;;;20.08;;
68523;SDS011;55524;51.380;13.372;2023-05-16T04:46:56;27.70;;;18.70;;
68523;SDS011;55524;51.380;13.372;2023-05-16T04:49:22;26.17;;;17.70;;
68523;SDS011;55524;51.380;13.372;2023-05-16T04:51:49;23.25;;;16.67;;
68523;SDS011;55524;51.380;13.372;2023-05-16T04:54:15;25.55;;;16.95;;
68523;SDS011;55524;51.380;13.372;2023-05-16T04:56:41;24.67;;;16.98;;
68523;SDS011;55524;51.380;13.372;2023-05-16T04:59:07;26.30;;;16.70;;
68523;SDS011;55524;51.380;13.372;2023-05-16T05:01:34;27.52;;;16.88;;
68523;SDS011;55524;51.380;13.372;2023-05-16T05:04:01;21.75;;;16.05;;
68523;SDS011;55524;51.380;13.372;2023-05-16T05:06:27;26.63;;;16.42;;
68523;SDS011;55524;51.380;13.372;2023-05-16T05:08:53;25.08;;;16.45;;
68523;SDS011;55524;51.380;13.372;2023-05-16T05:11:20;25.08;;;15.32;;
68523;SDS011;55524;51.380;13.372;2023-05-16T05:13:48;22.38;;;15.68;;
68523;SDS011;55524;51.380;13.372;2023-05-16T05:16:16;22.58;;;15.15;;
68523;SDS011;55524;51.380;13.372;2023-05-16T05:18:44;24.48;;;15.38;;
68523;SDS011;55524;51.380;13.372;2023-05-16T05:21:11;24.75;;;14.98;;
68523;SDS011;55524;51.380;13.372;2023-05-16T05:23:37;22.08;;;14.55;;
68523;SDS011;55524;51.380;13.372;2023-05-16T05:26:04;22.45;;;15.23;;
68523;SDS011;55524;51.380;13.372;2023-05-16T05:28:30;20.23;;;14.80;;
68523;SDS011;55524;51.380;13.372;2023-05-16T05:30:57;22.38;;;14.48;;
68523;SDS011;55524;51.380;13.372;2023-05-16T05:33:26;23.67;;;13.98;;
68523;SDS011;55524;51.380;13.372;2023-05-16T05:35:53;22.92;;;14.07;;
68523;SDS011;55524;51.380;13.372;2023-05-16T05:38:19;22.60;;;13.52;;
68523;SDS011;55524;51.380;13.372;2023-05-16T05:40:46;18.23;;;13.02;;
68523;SDS011;55524;51.380;13.372;2023-05-16T05:43:13;19.08;;;13.02;;
68523;SDS011;55524;51.380;13.372;2023-05-16T05:45:40;20.52;;;13.52;;
68523;SDS011;55524;51.380;13.372;2023-05-16T05:48:07;19.38;;;13.13;;
68523;SDS011;55524;51.380;13.372;2023-05-16T05:50:34;20.80;;;13.15;;
68523;SDS011;55524;51.380;13.372;2023-05-16T05:53:01;17.90;;;12.23;;
68523;SDS011;55524;51.380;13.372;2023-05-16T05:55:28;18.05;;;12.52;;
68523;SDS011;55524;51.380;13.372;2023-05-16T05:57:54;19.38;;;13.13;;
68523;SDS011;55524;51.380;13.372;2023-05-16T06:00:20;22.02;;;13.10;;
68523;SDS011;55524;51.380;13.372;2023-05-16T06:02:47;18.52;;;12.80;;
68523;SDS011;55524;51.380;13.372;2023-05-16T06:05:13;19.83;;;12.35;;
68523;SDS011;55524;51.380;13.372;2023-05-16T06:07:39;19.83;;;13.02;;
68523;SDS011;55524;51.380;13.372;2023-05-16T06:10:06;18.67;;;12.60;;
68523;SDS011;55524;51.380;13.372;2023-05-16T06:12:32;20.45;;;13.18;;
68523;SDS011;55524;51.380;13.372;2023-05-16T06:14:59;22.35;;;12.75;;
68523;SDS011;55524;51.380;13.372;2023-05-16T06:17:25;30.48;;;13.73;;
68523;SDS011;55524;51.380;13.372;2023-05-16T06:19:52;19.10;;;12.23;;
68523;SDS011;55524;51.380;13.372;2023-05-16T06:22:18;18.17;;;12.00;;
68523;SDS011;55524;51.380;13.372;2023-05-16T06:24:44;53.50;;;15.32;;
68523;SDS011;55524;51.380;13.372;2023-05-16T06:27:11;23.77;;;12.95;;
68523;SDS011;55524;51.380;13.372;2023-05-16T06:29:37;17.33;;;12.35;;
68523;SDS011;55524;51.380;13.372;2023-05-16T06:32:03;15.90;;;12.00;;
68523;SDS011;55524;51.380;13.372;2023-05-16T06:34:30;17.20;;;12.15;;
68523;SDS011;55524;51.380;13.372;2023-05-16T06:36:56;17.67;;;11.75;;
68523;SDS011;55524;51.380;13.372;2023-05-16T06:39:23;18.85;;;12.13;;
68523;SDS011;55524;51.380;13.372;2023-05-16T06:41:50;18.17;;;11.95;;
68523;SDS011;55524;51.380;13.372;2023-05-16T06:44:17;22.42;;;12.18;;
68523;SDS011;55524;51.380;13.372;2023-05-16T06:46:44;18.02;;;11.85;;
68523;SDS011;55524;51.380;13.372;2023-05-16T06:49:10;15.80;;;11.82;;
68523;SDS011;55524;51.380;13.372;2023-05-16T06:51:36;15.80;;;11.43;;
68523;SDS011;55524;51.380;13.372;2023-05-16T06:54:02;16.55;;;12.05;;
68523;SDS011;55524;51.380;13.372;2023-05-16T06:56:29;22.00;;;13.77;;
68523;SDS011;55524;51.380;13.372;2023-05-16T06:58:55;16.27;;;12.15;;
68523;SDS011;55524;51.380;13.372;2023-05-16T07:01:22;18.50;;;11.43;;
68523;SDS011;55524;51.380;13.372;2023-05-16T07:03:48;13.40;;;10.93;;
68523;SDS011;55524;51.380;13.372;2023-05-16T07:06:15;20.73;;;11.68;;
68523;SDS011;55524;51.380;13.372;2023-05-16T07:08:41;14.88;;;10.68;;
68523;SDS011;55524;51.380;13.372;2023-05-16T07:11:07;18.10;;;10.45;;
68523;SDS011;55524;51.380;13.372;2023-05-16T07:13:35;15.73;;;10.68;;
68523;SDS011;55524;51.380;13.372;2023-05-16T07:16:02;14.90;;;10.32;;
68523;SDS011;55524;51.380;13.372;2023-05-16T07:18:28;18.60;;;11.77;;
68523;SDS011;55524;51.380;13.372;2023-05-16T07:20:54;17.83;;;10.45;;
68523;SDS011;55524;51.380;13.372;2023-05-16T07:23:21;15.95;;;10.55;;
68523;SDS011;55524;51.380;13.372;2023-05-16T07:25:47;13.73;;;10.38;;
68523;SDS011;55524;51.380;13.372;2023-05-16T07:28:13;17.88;;;11.40;;
68523;SDS011;55524;51.380;13.372;2023-05-16T07:30:39;14.93;;;11.15;;
68523;SDS011;55524;51.380;13.372;2023-05-16T07:33:06;17.38;;;10.70;;
68523;SDS011;55524;51.380;13.372;2023-05-16T07:35:32;20.83;;;11.73;;
68523;SDS011;55524;51.380;13.372;2023-05-16T07:37:58;17.73;;;11.73;;
68523;SDS011;55524;51.380;13.372;2023-05-16T07:40:25;15.88;;;12.00;;
68523;SDS011;55524;51.380;13.372;2023-05-16T07:42:53;16.23;;;10.90;;
68523;SDS011;55524;51.380;13.372;2023-05-16T07:45:19;17.33;;;10.25;;
68523;SDS011;55524;51.380;13.372;2023-05-16T07:47:46;14.70;;;10.55;;
68523;SDS011;55524;51.380;13.372;2023-05-16T07:50:12;13.98;;;10.52;;
68523;SDS011;55524;51.380;13.372;2023-05-16T07:52:39;19.75;;;11.45;;
68523;SDS011;55524;51.380;13.372;2023-05-16T07:55:05;17.85;;;10.88;;
68523;SDS011;55524;51.380;13.372;2023-05-16T07:57:32;15.05;;;10.30;;
68523;SDS011;55524;51.380;13.372;2023-05-16T07:59:58;24.63;;;10.57;;
68523;SDS011;55524;51.380;13.372;2023-05-16T08:02:25;19.75;;;9.23;;
68523;SDS011;55524;51.380;13.372;2023-05-16T08:04:54;10.73;;;8.35;;
68523;SDS011;55524;51.380;13.372;2023-05-16T08:07:23;17.58;;;8.88;;
68523;SDS011;55524;51.380;13.372;2023-05-16T08:09:50;14.65;;;8.75;;
68523;SDS011;55524;51.380;13.372;2023-05-16T08:12:16;10.98;;;7.53;;
68523;SDS011;55524;51.380;13.372;2023-05-16T08:14:42;8.88;;;7.78;;
68523;SDS011;55524;51.380;13.372;2023-05-16T08:17:09;39.20;;;19.63;;
68523;SDS011;55524;51.380;13.372;2023-05-16T08:19:35;15.75;;;10.40;;
68523;SDS011;55524;51.380;13.372;2023-05-16T08:22:01;10.35;;;8.13;;
68523;SDS011;55524;51.380;13.372;2023-05-16T08:24:27;14.00;;;7.43;;
68523;SDS011;55524;51.380;13.372;2023-05-16T08:26:54;10.75;;;7.57;;
68523;SDS011;55524;51.380;13.372;2023-05-16T08:29:20;18.65;;;13.25;;
68523;SDS011;55524;51.380;13.372;2023-05-16T08:47:38;12.30;;;8.27;;
68523;SDS011;55524;51.380;13.372;2023-05-16T08:50:07;15.15;;;7.75;;
68523;SDS011;55524;51.380;13.372;2023-05-16T08:52:34;7.95;;;7.18;;
68523;SDS011;55524;51.380;13.372;2023-05-16T08:55:04;10.38;;;6.90;;
68523;SDS011;55524;51.380;13.372;2023-05-16T08:57:34;8.20;;;6.38;;
68523;SDS011;55524;51.380;13.372;2023-05-16T09:00:01;9.73;;;6.22;;
68523;SDS011;55524;51.380;13.372;2023-05-16T09:04:59;11.80;;;7.00;;
68523;SDS011;55524;51.380;13.372;2023-05-16T09:07:27;10.23;;;6.00;;
68523;SDS011;55524;51.380;13.372;2023-05-16T09:09:54;7.03;;;5.65;;
68523;SDS011;55524;51.380;13.372;2023-05-16T09:12:20;7.80;;;6.28;;
68523;SDS011;55524;51.380;13.372;2023-05-16T09:14:47;10.20;;;6.28;;
68523;SDS011;55524;51.380;13.372;2023-05-16T09:17:13;10.82;;;6.15;;
68523;SDS011;55524;51.380;13.372;2023-05-16T09:19:43;6.80;;;5.60;;
68523;SDS011;55524;51.380;13.372;2023-05-16T09:22:13;7.18;;;5.75;;
68523;SDS011;55524;51.380;13.372;2023-05-16T09:24:40;7.80;;;6.13;;
68523;SDS011;55524;51.380;13.372;2023-05-16T09:27:08;7.78;;;5.47;;
68523;SDS011;55524;51.380;13.372;2023-05-16T09:29:42;8.93;;;5.47;;
68523;SDS011;55524;51.380;13.372;2023-05-16T09:32:14;7.95;;;5.63;;
68523;SDS011;55524;51.380;13.372;2023-05-16T09:34:45;5.93;;;5.22;;
68523;SDS011;55524;51.380;13.372;2023-05-16T09:37:13;6.63;;;5.18;;
68523;SDS011;55524;51.380;13.372;2023-05-16T09:40:13;6.50;;;4.82;;
68523;SDS011;55524;51.380;13.372;2023-05-16T09:42:34;20.25;;;7.13;;
68523;SDS011;55524;51.380;13.372;2023-05-16T09:45:00;15.85;;;5.40;;
68523;SDS011;55524;51.380;13.372;2023-05-16T09:47:27;6.47;;;4.43;;
68523;SDS011;55524;51.380;13.372;2023-05-16T09:49:53;7.35;;;4.95;;
68523;SDS011;55524;51.380;13.372;2023-05-16T09:52:21;6.88;;;4.47;;
68523;SDS011;55524;51.380;13.372;2023-05-16T09:54:51;4.57;;;4.15;;
68523;SDS011;55524;51.380;13.372;2023-05-16T09:57:21;4.82;;;4.20;;
68523;SDS011;55524;51.380;13.372;2023-05-16T09:59:51;7.50;;;4.45;;
68523;SDS011;55524;51.380;13.372;2023-05-16T10:02:17;7.82;;;4.80;;
68523;SDS011;55524;51.380;13.372;2023-05-16T10:04:44;5.28;;;4.40;;
68523;SDS011;55524;51.380;13.372;2023-05-16T10:07:10;7.72;;;4.40;;
68523;SDS011;55524;51.380;13.372;2023-05-16T10:09:38;18.25;;;4.95;;
68523;SDS011;55524;51.380;13.372;2023-05-16T10:12:06;7.15;;;4.07;;
68523;SDS011;55524;51.380;13.372;2023-05-16T10:14:36;14.93;;;4.23;;
68523;SDS011;55524;51.380;13.372;2023-05-16T10:17:03;8.27;;;3.85;;
68523;SDS011;55524;51.380;13.372;2023-05-16T10:19:31;4.68;;;3.40;;
68523;SDS011;55524;51.380;13.372;2023-05-16T10:22:03;4.65;;;3.75;;
68523;SDS011;55524;51.380;13.372;2023-05-16T10:27:14;9.40;;;3.67;;
68523;SDS011;55524;51.380;13.372;2023-05-16T10:29:41;4.30;;;3.40;;
68523;SDS011;55524;51.380;13.372;2023-05-16T10:32:08;5.68;;;3.90;;
68523;SDS011;55524;51.380;13.372;2023-05-16T10:34:36;3.70;;;3.33;;
68523;SDS011;55524;51.380;13.372;2023-05-16T10:37:03;3.88;;;3.58;;
68523;SDS011;55524;51.380;13.372;2023-05-16T10:39:30;4.05;;;3.70;;
68523;SDS011;55524;51.380;13.372;2023-05-16T10:41:57;4.35;;;3.72;;
68523;SDS011;55524;51.380;13.372;2023-05-16T10:44:24;8.48;;;3.40;;
68523;SDS011;55524;51.380;13.372;2023-05-16T10:46:51;3.33;;;3.13;;
68523;SDS011;55524;51.380;13.372;2023-05-16T10:49:20;4.50;;;3.60;;
68523;SDS011;55524;51.380;13.372;2023-05-16T10:52:10;7.65;;;3.50;;
68523;SDS011;55524;51.380;13.372;2023-05-16T10:54:40;10.35;;;3.50;;
68523;SDS011;55524;51.380;13.372;2023-05-16T10:57:08;5.03;;;3.28;;
68523;SDS011;55524;51.380;13.372;2023-05-16T10:59:45;3.22;;;2.92;;
68523;SDS011;55524;51.380;13.372;2023-05-16T11:02:23;5.40;;;3.20;;
68523;SDS011;55524;51.380;13.372;2023-05-16T11:04:59;3.78;;;3.47;;
68523;SDS011;55524;51.380;13.372;2023-05-16T11:07:34;3.65;;;2.65;;
68523;SDS011;55524;51.380;13.372;2023-05-16T11:10:07;5.70;;;2.95;;
68523;SDS011;55524;51.380;13.372;2023-05-16T11:12:36;3.45;;;2.80;;
68523;SDS011;55524;51.380;13.372;2023-05-16T11:15:27;3.60;;;2.78;;
68523;SDS011;55524;51.380;13.372;2023-05-16T11:18:02;4.80;;;2.90;;
68523;SDS011;55524;51.380;13.372;2023-05-16T11:20:37;13.45;;;3.17;;
68523;SDS011;55524;51.380;13.372;2023-05-16T11:25:41;3.22;;;2.88;;
68523;SDS011;55524;51.380;13.372;2023-05-16T11:28:09;3.80;;;2.70;;
68523;SDS011;55524;51.380;13.372;2023-05-16T11:30:45;3.45;;;2.55;;
68523;SDS011;55524;51.380;13.372;2023-05-16T11:33:14;5.18;;;2.80;;
68523;SDS011;55524;51.380;13.372;2023-05-16T11:35:41;4.35;;;2.45;;
68523;SDS011;55524;51.380;13.372;2023-05-16T11:38:14;2.95;;;2.75;;
68523;SDS011;55524;51.380;13.372;2023-05-16T11:40:41;3.78;;;2.58;;
68523;SDS011;55524;51.380;13.372;2023-05-16T11:43:08;4.03;;;2.92;;
68523;SDS011;55524;51.380;13.372;2023-05-16T11:45:35;5.07;;;2.60;;
68523;SDS011;55524;51.380;13.372;2023-05-16T11:48:02;2.72;;;2.53;;
68523;SDS011;55524;51.380;13.372;2023-05-16T11:50:29;3.72;;;2.35;;
68523;SDS011;55524;51.380;13.372;2023-05-16T11:52:55;2.63;;;2.42;;
68523;SDS011;55524;51.380;13.372;2023-05-16T11:55:23;5.63;;;2.42;;
68523;SDS011;55524;51.380;13.372;2023-05-16T11:57:55;3.53;;;2.17;;
68523;SDS011;55524;51.380;13.372;2023-05-16T12:00:23;2.60;;;2.40;;
68523;SDS011;55524;51.380;13.372;2023-05-16T12:02:51;2.42;;;2.10;;
68523;SDS011;55524;51.380;13.372;2023-05-16T12:05:19;4.20;;;2.60;;
68523;SDS011;55524;51.380;13.372;2023-05-16T12:07:50;2.45;;;2.25;;
68523;SDS011;55524;51.380;13.372;2023-05-16T12:10:18;5.80;;;2.35;;
68523;SDS011;55524;51.380;13.372;2023-05-16T12:12:46;3.45;;;2.50;;
68523;SDS011;55524;51.380;13.372;2023-05-16T12:15:16;2.88;;;2.67;;
68523;SDS011;55524;51.380;13.372;2023-05-16T12:17:43;3.03;;;2.80;;
68523;SDS011;55524;51.380;13.372;2023-05-16T12:20:11;4.03;;;3.17;;
68523;SDS011;55524;51.380;13.372;2023-05-16T12:22:41;4.13;;;3.10;;
68523;SDS011;55524;51.380;13.372;2023-05-16T12:25:25;3.08;;;2.70;;
68523;SDS011;55524;51.380;13.372;2023-05-16T12:28:02;5.00;;;2.55;;
68523;SDS011;55524;51.380;13.372;2023-05-16T12:30:32;6.53;;;3.28;;
68523;SDS011;55524;51.380;13.372;2023-05-16T12:35:32;3.83;;;2.42;;
68523;SDS011;55524;51.380;13.372;2023-05-16T12:38:03;4.30;;;2.35;;
68523;SDS011;55524;51.380;13.372;2023-05-16T12:40:30;7.20;;;2.63;;
68523;SDS011;55524;51.380;13.372;2023-05-16T12:42:56;7.68;;;2.60;;
68523;SDS011;55524;51.380;13.372;2023-05-16T12:45:24;4.65;;;2.20;;
68523;SDS011;55524;51.380;13.372;2023-05-16T12:47:52;8.27;;;2.70;;
68523;SDS011;55524;51.380;13.372;2023-05-16T12:50:18;8.57;;;4.35;;
68523;SDS011;55524;51.380;13.372;2023-05-16T12:52:49;8.57;;;3.83;;
68523;SDS011;55524;51.380;13.372;2023-05-16T12:55:20;10.68;;;2.60;;
68523;SDS011;55524;51.380;13.372;2023-05-16T12:57:47;7.22;;;2.22;;
68523;SDS011;55524;51.380;13.372;2023-05-16T13:00:15;5.95;;;2.75;;
68523;SDS011;55524;51.380;13.372;2023-05-16T13:02:43;3.00;;;2.22;;
68523;SDS011;55524;51.380;13.372;2023-05-16T13:05:10;4.53;;;2.33;;
68523;SDS011;55524;51.380;13.372;2023-05-16T13:07:37;5.80;;;2.25;;
68523;SDS011;55524;51.380;13.372;2023-05-16T13:10:07;5.63;;;2.50;;
68523;SDS011;55524;51.380;13.372;2023-05-16T13:12:38;5.55;;;2.20;;
68523;SDS011;55524;51.380;13.372;2023-05-16T13:15:05;8.00;;;2.22;;
68523;SDS011;55524;51.380;13.372;2023-05-16T13:17:34;6.28;;;2.40;;
68523;SDS011;55524;51.380;13.372;2023-05-16T13:20:01;4.70;;;2.03;;
68523;SDS011;55524;51.380;13.372;2023-05-16T13:22:39;9.10;;;2.10;;
68523;SDS011;55524;51.380;13.372;2023-05-16T13:25:06;10.70;;;2.20;;
68523;SDS011;55524;51.380;13.372;2023-05-16T13:27:33;8.93;;;2.53;;
68523;SDS011;55524;51.380;13.372;2023-05-16T13:29:59;5.70;;;2.15;;
68523;SDS011;55524;51.380;13.372;2023-05-16T13:32:28;7.03;;;2.63;;
68523;SDS011;55524;51.380;13.372;2023-05-16T13:34:55;7.57;;;3.00;;
68523;SDS011;55524;51.380;13.372;2023-05-16T13:37:21;9.55;;;2.92;;
68523;SDS011;55524;51.380;13.372;2023-05-16T13:39:50;17.63;;;2.50;;
68523;SDS011;55524;51.380;13.372;2023-05-16T13:42:18;9.02;;;2.13;;
68523;SDS011;55524;51.380;13.372;2023-05-16T13:44:45;6.40;;;2.25;;
68523;SDS011;55524;51.380;13.372;2023-05-16T13:47:11;9.60;;;2.20;;
68523;SDS011;55524;51.380;13.372;2023-05-16T13:49:37;5.90;;;2.40;;
68523;SDS011;55524;51.380;13.372;2023-05-16T13:52:04;7.88;;;2.00;;
68523;SDS011;55524;51.380;13.372;2023-05-16T13:54:30;11.98;;;2.40;;
68523;SDS011;55524;51.380;13.372;2023-05-16T13:56:57;7.72;;;2.00;;
68523;SDS011;55524;51.380;13.372;2023-05-16T13:59:23;4.65;;;1.95;;
68523;SDS011;55524;51.380;13.372;2023-05-16T14:01:50;5.18;;;1.90;;
68523;SDS011;55524;51.380;13.372;2023-05-16T14:04:16;4.18;;;1.77;;
68523;SDS011;55524;51.380;13.372;2023-05-16T14:06:42;10.45;;;3.65;;
68523;SDS011;55524;51.380;13.372;2023-05-16T14:09:09;7.18;;;1.70;;
68523;SDS011;55524;51.380;13.372;2023-05-16T14:11:37;6.05;;;2.00;;
68523;SDS011;55524;51.380;13.372;2023-05-16T14:14:03;7.28;;;1.80;;
68523;SDS011;55524;51.380;13.372;2023-05-16T14:16:29;7.55;;;1.88;;
68523;SDS011;55524;51.380;13.372;2023-05-16T14:18:57;11.35;;;1.80;;
68523;SDS011;55524;51.380;13.372;2023-05-16T14:21:23;6.85;;;1.83;;
68523;SDS011;55524;51.380;13.372;2023-05-16T14:23:50;9.20;;;1.90;;
68523;SDS011;55524;51.380;13.372;2023-05-16T14:26:17;7.97;;;2.08;;
68523;SDS011;55524;51.380;13.372;2023-05-16T14:28:47;10.23;;;1.85;;
68523;SDS011;55524;51.380;13.372;2023-05-16T14:31:13;12.02;;;1.80;;
68523;SDS011;55524;51.380;13.372;2023-05-16T14:33:40;7.03;;;1.88;;
68523;SDS011;55524;51.380;13.372;2023-05-16T14:36:07;12.23;;;2.17;;
68523;SDS011;55524;51.380;13.372;2023-05-16T14:38:34;10.15;;;2.47;;
68523;SDS011;55524;51.380;13.372;2023-05-16T14:41:01;4.03;;;1.92;;
68523;SDS011;55524;51.380;13.372;2023-05-16T14:43:27;7.15;;;2.03;;
68523;SDS011;55524;51.380;13.372;2023-05-16T14:45:54;10.23;;;2.70;;
68523;SDS011;55524;51.380;13.372;2023-05-16T14:48:20;4.88;;;1.40;;
68523;SDS011;55524;51.380;13.372;2023-05-16T14:50:46;6.00;;;1.67;;
68523;SDS011;55524;51.380;13.372;2023-05-16T14:53:13;10.18;;;3.40;;
68523;SDS011;55524;51.380;13.372;2023-05-16T14:55:40;4.57;;;1.88;;
68523;SDS011;55524;51.380;13.372;2023-05-16T14:58:06;6.57;;;1.80;;
68523;SDS011;55524;51.380;13.372;2023-05-16T15:00:33;7.05;;;1.90;;